sensor_id;sensor_type;location;lat;lon;timestamp;P1;durP1;ratioP1;P2;durP2;ratioP2
22628;SDS011;11481;53.694;9.910;2023-05-27T00:01:10;6.07;;;1.38;;
22628;SDS011;11481;53.694;9.910;2023-05-27T00:03:39;8.38;;;2.38;;
22628;SDS011;11481;53.694;9.910;2023-05-27T00:06:06;10.82;;;2.00;;
22628;SDS011;11481;53.694;9.910;2023-05-27T00:08:33;8.73;;;1.88;;
22628;SDS011;11481;53.694;9.910;2023-05-27T00:11:00;5.97;;;1.88;;
22628;SDS011;11481;53.694;9.910;2023-05-27T00:13:27;5.30;;;1.52;;
22628;SDS011;11481;53.694;9.910;2023-05-27T00:15:54;8.73;;;1.60;;
22628;SDS011;11481;53.694;9.910;2023-05-27T00:18:22;5.38;;;1.70;;
22628;SDS011;11481;53.694;9.910;2023-05-27T00:20:49;5.57;;;1.85;;
22628;SDS011;11481;53.694;9.910;2023-05-27T00:23:16;5.00;;;1.50;;
22628;SDS011;11481;53.694;9.910;2023-05-27T00:25:43;5.03;;;1.77;;
22628;SDS011;11481;53.694;9.910;2023-05-27T00:28:10;9.20;;;1.92;;
22628;SDS011;11481;53.694;9.910;2023-05-27T00:30:36;6.82;;;1.52;;
22628;SDS011;11481;53.694;9.910;2023-05-27T00:33:03;7.20;;;1.63;;
22628;SDS011;11481;53.694;9.910;2023-05-27T00:35:30;4.05;;;1.75;;
22628;SDS011;11481;53.694;9.910;2023-05-27T00:37:56;5.90;;;1.42;;
22628;SDS011;11481;53.694;9.910;2023-05-27T00:40:23;5.15;;;1.58;;
22628;SDS011;11481;53.694;9.910;2023-05-27T00:42:52;6.63;;;1.90;;
22628;SDS011;11481;53.694;9.910;2023-05-27T00:45:18;6.28;;;1.63;;
22628;SDS011;11481;53.694;9.910;2023-05-27T00:47:45;4.57;;;1.55;;
22628;SDS011;11481;53.694;9.910;2023-05-27T00:50:12;4.78;;;1.67;;
22628;SDS011;11481;53.694;9.910;2023-05-27T00:52:39;7.28;;;2.00;;
22628;SDS011;11481;53.694;9.910;2023-05-27T00:55:06;8.70;;;1.75;;
22628;SDS011;11481;53.694;9.910;2023-05-27T00:57:33;8.02;;;1.80;;
22628;SDS011;11481;53.694;9.910;2023-05-27T01:00:00;7.88;;;1.63;;
22628;SDS011;11481;53.694;9.910;2023-05-27T01:02:28;5.43;;;1.63;;
22628;SDS011;11481;53.694;9.910;2023-05-27T01:04:55;6.85;;;1.45;;
22628;SDS011;11481;53.694;9.910;2023-05-27T01:12:42;6.13;;;1.88;;
22628;SDS011;11481;53.694;9.910;2023-05-27T01:15:14;3.97;;;1.50;;
22628;SDS011;11481;53.694;9.910;2023-05-27T01:17:42;9.35;;;1.90;;
22628;SDS011;11481;53.694;9.910;2023-05-27T01:20:11;5.38;;;1.60;;
22628;SDS011;11481;53.694;9.910;2023-05-27T01:22:42;5.05;;;1.30;;
22628;SDS011;11481;53.694;9.910;2023-05-27T01:25:09;5.68;;;1.48;;
22628;SDS011;11481;53.694;9.910;2023-05-27T01:27:36;6.18;;;1.90;;
22628;SDS011;11481;53.694;9.910;2023-05-27T01:30:06;8.27;;;1.85;;
22628;SDS011;11481;53.694;9.910;2023-05-27T01:32:37;3.63;;;1.65;;
22628;SDS011;11481;53.694;9.910;2023-05-27T01:35:14;3.90;;;1.45;;
22628;SDS011;11481;53.694;9.910;2023-05-27T01:37:50;7.80;;;1.73;;
22628;SDS011;11481;53.694;9.910;2023-05-27T01:40:18;5.05;;;1.50;;
22628;SDS011;11481;53.694;9.910;2023-05-27T01:42:46;5.95;;;1.63;;
22628;SDS011;11481;53.694;9.910;2023-05-27T01:45:14;6.60;;;1.23;;
22628;SDS011;11481;53.694;9.910;2023-05-27T01:47:42;8.25;;;1.85;;
22628;SDS011;11481;53.694;9.910;2023-05-27T01:50:11;7.07;;;1.98;;
22628;SDS011;11481;53.694;9.910;2023-05-27T01:52:38;5.10;;;1.52;;
22628;SDS011;11481;53.694;9.910;2023-05-27T01:55:04;8.10;;;1.88;;
22628;SDS011;11481;53.694;9.910;2023-05-27T01:57:31;5.95;;;1.38;;
22628;SDS011;11481;53.694;9.910;2023-05-27T01:59:58;6.80;;;2.00;;
22628;SDS011;11481;53.694;9.910;2023-05-27T02:02:25;5.43;;;1.80;;
22628;SDS011;11481;53.694;9.910;2023-05-27T02:04:51;4.43;;;1.42;;
22628;SDS011;11481;53.694;9.910;2023-05-27T02:07:18;6.93;;;1.88;;
22628;SDS011;11481;53.694;9.910;2023-05-27T02:09:45;5.15;;;1.70;;
22628;SDS011;11481;53.694;9.910;2023-05-27T02:12:12;9.07;;;2.05;;
22628;SDS011;11481;53.694;9.910;2023-05-27T02:14:38;6.65;;;1.60;;
22628;SDS011;11481;53.694;9.910;2023-05-27T02:17:07;11.55;;;2.28;;
22628;SDS011;11481;53.694;9.910;2023-05-27T02:19:34;6.47;;;1.75;;
22628;SDS011;11481;53.694;9.910;2023-05-27T02:22:01;6.45;;;1.75;;
22628;SDS011;11481;53.694;9.910;2023-05-27T02:24:28;6.10;;;1.48;;
22628;SDS011;11481;53.694;9.910;2023-05-27T02:26:54;3.88;;;1.25;;
22628;SDS011;11481;53.694;9.910;2023-05-27T02:29:21;10.00;;;1.83;;
22628;SDS011;11481;53.694;9.910;2023-05-27T02:31:48;6.20;;;1.65;;
22628;SDS011;11481;53.694;9.910;2023-05-27T02:34:14;6.95;;;1.55;;
22628;SDS011;11481;53.694;9.910;2023-05-27T02:36:41;6.53;;;1.92;;
22628;SDS011;11481;53.694;9.910;2023-05-27T02:39:09;6.15;;;1.77;;
22628;SDS011;11481;53.694;9.910;2023-05-27T02:41:36;2.60;;;1.38;;
22628;SDS011;11481;53.694;9.910;2023-05-27T02:44:04;4.88;;;1.60;;
22628;SDS011;11481;53.694;9.910;2023-05-27T02:46:31;3.30;;;1.55;;
22628;SDS011;11481;53.694;9.910;2023-05-27T02:48:58;5.05;;;1.85;;
22628;SDS011;11481;53.694;9.910;2023-05-27T02:51:25;3.80;;;1.52;;
22628;SDS011;11481;53.694;9.910;2023-05-27T02:53:51;4.82;;;1.50;;
22628;SDS011;11481;53.694;9.910;2023-05-27T02:56:18;7.25;;;1.45;;
22628;SDS011;11481;53.694;9.910;2023-05-27T02:58:45;6.78;;;1.80;;
22628;SDS011;11481;53.694;9.910;2023-05-27T03:01:11;6.78;;;1.60;;
22628;SDS011;11481;53.694;9.910;2023-05-27T03:03:38;4.32;;;1.58;;
22628;SDS011;11481;53.694;9.910;2023-05-27T03:06:05;5.85;;;1.52;;
22628;SDS011;11481;53.694;9.910;2023-05-27T03:08:32;8.85;;;2.03;;
22628;SDS011;11481;53.694;9.910;2023-05-27T03:10:58;4.40;;;1.67;;
22628;SDS011;11481;53.694;9.910;2023-05-27T03:13:25;7.53;;;2.25;;
22628;SDS011;11481;53.694;9.910;2023-05-27T03:15:52;7.68;;;2.08;;
22628;SDS011;11481;53.694;9.910;2023-05-27T03:18:20;5.97;;;1.88;;
22628;SDS011;11481;53.694;9.910;2023-05-27T03:20:47;7.63;;;2.85;;
22628;SDS011;11481;53.694;9.910;2023-05-27T03:23:14;6.70;;;1.80;;
22628;SDS011;11481;53.694;9.910;2023-05-27T03:25:41;7.72;;;1.92;;
22628;SDS011;11481;53.694;9.910;2023-05-27T03:28:08;4.85;;;1.65;;
22628;SDS011;11481;53.694;9.910;2023-05-27T03:30:34;3.92;;;1.35;;
22628;SDS011;11481;53.694;9.910;2023-05-27T03:33:01;9.25;;;1.88;;
22628;SDS011;11481;53.694;9.910;2023-05-27T03:35:28;7.63;;;1.85;;
22628;SDS011;11481;53.694;9.910;2023-05-27T03:37:55;5.85;;;1.30;;
22628;SDS011;11481;53.694;9.910;2023-05-27T03:40:22;6.22;;;1.60;;
22628;SDS011;11481;53.694;9.910;2023-05-27T03:42:48;5.30;;;1.63;;
22628;SDS011;11481;53.694;9.910;2023-05-27T03:45:15;8.70;;;1.88;;
22628;SDS011;11481;53.694;9.910;2023-05-27T03:47:42;6.95;;;1.55;;
22628;SDS011;11481;53.694;9.910;2023-05-27T03:50:09;6.22;;;1.60;;
22628;SDS011;11481;53.694;9.910;2023-05-27T03:52:36;4.45;;;1.63;;
22628;SDS011;11481;53.694;9.910;2023-05-27T03:55:03;3.15;;;1.40;;
22628;SDS011;11481;53.694;9.910;2023-05-27T03:57:30;6.55;;;1.83;;
22628;SDS011;11481;53.694;9.910;2023-05-27T03:59:56;8.75;;;2.17;;
22628;SDS011;11481;53.694;9.910;2023-05-27T04:02:23;11.32;;;2.47;;
22628;SDS011;11481;53.694;9.910;2023-05-27T04:04:50;6.03;;;2.00;;
22628;SDS011;11481;53.694;9.910;2023-05-27T04:07:18;4.63;;;1.90;;
22628;SDS011;11481;53.694;9.910;2023-05-27T04:09:46;8.98;;;2.33;;
22628;SDS011;11481;53.694;9.910;2023-05-27T04:12:13;10.20;;;2.22;;
22628;SDS011;11481;53.694;9.910;2023-05-27T04:14:39;10.73;;;2.17;;
22628;SDS011;11481;53.694;9.910;2023-05-27T04:17:06;8.65;;;2.60;;
22628;SDS011;11481;53.694;9.910;2023-05-27T04:19:33;9.80;;;1.90;;
22628;SDS011;11481;53.694;9.910;2023-05-27T04:22:00;9.93;;;2.58;;
22628;SDS011;11481;53.694;9.910;2023-05-27T04:24:27;7.05;;;2.15;;
22628;SDS011;11481;53.694;9.910;2023-05-27T04:26:53;8.35;;;1.95;;
22628;SDS011;11481;53.694;9.910;2023-05-27T04:29:20;7.63;;;1.98;;
22628;SDS011;11481;53.694;9.910;2023-05-27T04:31:48;6.75;;;1.90;;
22628;SDS011;11481;53.694;9.910;2023-05-27T04:34:15;4.53;;;1.58;;
22628;SDS011;11481;53.694;9.910;2023-05-27T04:36:42;6.57;;;1.77;;
22628;SDS011;11481;53.694;9.910;2023-05-27T04:39:10;6.70;;;2.03;;
22628;SDS011;11481;53.694;9.910;2023-05-27T04:41:37;7.85;;;1.75;;
22628;SDS011;11481;53.694;9.910;2023-05-27T04:44:06;6.88;;;1.92;;
22628;SDS011;11481;53.694;9.910;2023-05-27T04:46:33;5.38;;;1.83;;
22628;SDS011;11481;53.694;9.910;2023-05-27T04:48:59;5.93;;;2.03;;
22628;SDS011;11481;53.694;9.910;2023-05-27T04:51:26;5.90;;;1.80;;
22628;SDS011;11481;53.694;9.910;2023-05-27T04:53:53;8.55;;;2.28;;
22628;SDS011;11481;53.694;9.910;2023-05-27T04:56:20;11.48;;;2.13;;
22628;SDS011;11481;53.694;9.910;2023-05-27T04:58:47;9.73;;;1.75;;
22628;SDS011;11481;53.694;9.910;2023-05-27T05:01:14;6.78;;;1.90;;
22628;SDS011;11481;53.694;9.910;2023-05-27T05:03:47;5.28;;;2.25;;
22628;SDS011;11481;53.694;9.910;2023-05-27T05:06:19;5.65;;;1.98;;
22628;SDS011;11481;53.694;9.910;2023-05-27T05:08:48;12.23;;;2.78;;
22628;SDS011;11481;53.694;9.910;2023-05-27T05:11:15;10.02;;;3.45;;
22628;SDS011;11481;53.694;9.910;2023-05-27T05:13:42;9.25;;;2.47;;
22628;SDS011;11481;53.694;9.910;2023-05-27T05:16:08;8.48;;;2.53;;
22628;SDS011;11481;53.694;9.910;2023-05-27T05:18:35;10.30;;;2.88;;
22628;SDS011;11481;53.694;9.910;2023-05-27T05:21:02;6.07;;;2.03;;
22628;SDS011;11481;53.694;9.910;2023-05-27T05:23:29;11.73;;;2.85;;
22628;SDS011;11481;53.694;9.910;2023-05-27T05:25:56;8.30;;;2.50;;
22628;SDS011;11481;53.694;9.910;2023-05-27T05:28:24;9.13;;;2.47;;
22628;SDS011;11481;53.694;9.910;2023-05-27T05:30:54;7.05;;;2.53;;
22628;SDS011;11481;53.694;9.910;2023-05-27T05:33:21;8.05;;;2.42;;
22628;SDS011;11481;53.694;9.910;2023-05-27T05:35:49;10.48;;;2.50;;
22628;SDS011;11481;53.694;9.910;2023-05-27T05:38:16;7.93;;;2.90;;
22628;SDS011;11481;53.694;9.910;2023-05-27T05:40:42;9.35;;;3.30;;
22628;SDS011;11481;53.694;9.910;2023-05-27T05:43:15;14.52;;;3.28;;
22628;SDS011;11481;53.694;9.910;2023-05-27T05:45:42;20.35;;;3.33;;
22628;SDS011;11481;53.694;9.910;2023-05-27T05:48:10;8.02;;;2.80;;
22628;SDS011;11481;53.694;9.910;2023-05-27T05:50:37;10.57;;;2.72;;
22628;SDS011;11481;53.694;9.910;2023-05-27T05:53:04;9.93;;;2.95;;
22628;SDS011;11481;53.694;9.910;2023-05-27T05:55:31;11.60;;;3.40;;
22628;SDS011;11481;53.694;9.910;2023-05-27T05:57:57;12.15;;;3.05;;
22628;SDS011;11481;53.694;9.910;2023-05-27T06:00:24;14.98;;;3.50;;
22628;SDS011;11481;53.694;9.910;2023-05-27T06:02:51;13.77;;;3.47;;
22628;SDS011;11481;53.694;9.910;2023-05-27T06:05:18;10.18;;;3.38;;
22628;SDS011;11481;53.694;9.910;2023-05-27T06:07:44;8.30;;;2.67;;
22628;SDS011;11481;53.694;9.910;2023-05-27T06:10:12;12.55;;;3.92;;
22628;SDS011;11481;53.694;9.910;2023-05-27T06:12:40;9.93;;;3.08;;
22628;SDS011;11481;53.694;9.910;2023-05-27T06:15:06;14.82;;;3.75;;
22628;SDS011;11481;53.694;9.910;2023-05-27T06:17:35;5.93;;;2.53;;
22628;SDS011;11481;53.694;9.910;2023-05-27T06:20:02;10.00;;;2.65;;
22628;SDS011;11481;53.694;9.910;2023-05-27T06:22:29;12.00;;;3.13;;
22628;SDS011;11481;53.694;9.910;2023-05-27T06:24:56;14.10;;;2.97;;
22628;SDS011;11481;53.694;9.910;2023-05-27T06:27:23;8.93;;;3.20;;
22628;SDS011;11481;53.694;9.910;2023-05-27T06:29:50;11.00;;;3.00;;
22628;SDS011;11481;53.694;9.910;2023-05-27T06:32:16;14.15;;;3.25;;
22628;SDS011;11481;53.694;9.910;2023-05-27T06:34:43;11.98;;;3.63;;
22628;SDS011;11481;53.694;9.910;2023-05-27T06:37:09;12.70;;;2.95;;
22628;SDS011;11481;53.694;9.910;2023-05-27T06:39:36;12.70;;;2.35;;
22628;SDS011;11481;53.694;9.910;2023-05-27T06:42:03;12.30;;;3.08;;
22628;SDS011;11481;53.694;9.910;2023-05-27T06:44:30;15.32;;;2.55;;
22628;SDS011;11481;53.694;9.910;2023-05-27T06:46:56;11.77;;;2.90;;
22628;SDS011;11481;53.694;9.910;2023-05-27T06:49:23;8.23;;;2.92;;
22628;SDS011;11481;53.694;9.910;2023-05-27T06:51:50;10.85;;;2.83;;
22628;SDS011;11481;53.694;9.910;2023-05-27T06:54:17;13.35;;;3.55;;
22628;SDS011;11481;53.694;9.910;2023-05-27T06:56:43;9.48;;;2.47;;
22628;SDS011;11481;53.694;9.910;2023-05-27T06:59:10;12.15;;;3.22;;
22628;SDS011;11481;53.694;9.910;2023-05-27T07:01:37;10.15;;;2.92;;
22628;SDS011;11481;53.694;9.910;2023-05-27T07:04:03;12.68;;;2.75;;
22628;SDS011;11481;53.694;9.910;2023-05-27T07:06:30;12.75;;;2.40;;
22628;SDS011;11481;53.694;9.910;2023-05-27T07:08:57;6.25;;;2.40;;
22628;SDS011;11481;53.694;9.910;2023-05-27T07:11:24;10.93;;;2.28;;
22628;SDS011;11481;53.694;9.910;2023-05-27T07:13:52;9.70;;;2.65;;
22628;SDS011;11481;53.694;9.910;2023-05-27T07:16:19;7.97;;;2.13;;
22628;SDS011;11481;53.694;9.910;2023-05-27T07:18:46;12.70;;;2.58;;
22628;SDS011;11481;53.694;9.910;2023-05-27T07:21:12;7.95;;;2.03;;
22628;SDS011;11481;53.694;9.910;2023-05-27T07:23:39;12.40;;;2.53;;
22628;SDS011;11481;53.694;9.910;2023-05-27T07:26:06;7.63;;;2.22;;
22628;SDS011;11481;53.694;9.910;2023-05-27T07:28:32;10.40;;;2.60;;
22628;SDS011;11481;53.694;9.910;2023-05-27T07:30:59;10.07;;;2.00;;
22628;SDS011;11481;53.694;9.910;2023-05-27T07:33:26;10.23;;;2.72;;
22628;SDS011;11481;53.694;9.910;2023-05-27T07:35:52;9.65;;;2.40;;
22628;SDS011;11481;53.694;9.910;2023-05-27T07:38:19;11.77;;;2.22;;
22628;SDS011;11481;53.694;9.910;2023-05-27T07:40:46;6.68;;;2.20;;
22628;SDS011;11481;53.694;9.910;2023-05-27T07:43:13;9.35;;;2.20;;
22628;SDS011;11481;53.694;9.910;2023-05-27T07:45:39;13.32;;;3.08;;
22628;SDS011;11481;53.694;9.910;2023-05-27T07:48:06;11.95;;;2.60;;
22628;SDS011;11481;53.694;9.910;2023-05-27T07:50:33;8.10;;;2.60;;
22628;SDS011;11481;53.694;9.910;2023-05-27T07:52:59;9.05;;;2.25;;
22628;SDS011;11481;53.694;9.910;2023-05-27T07:55:26;12.52;;;2.92;;
22628;SDS011;11481;53.694;9.910;2023-05-27T07:57:56;10.40;;;2.25;;
22628;SDS011;11481;53.694;9.910;2023-05-27T08:00:24;11.43;;;2.40;;
22628;SDS011;11481;53.694;9.910;2023-05-27T08:02:50;12.23;;;2.70;;
22628;SDS011;11481;53.694;9.910;2023-05-27T08:05:17;9.45;;;2.75;;
22628;SDS011;11481;53.694;9.910;2023-05-27T08:07:44;8.32;;;2.60;;
22628;SDS011;11481;53.694;9.910;2023-05-27T08:10:11;10.13;;;2.30;;
22628;SDS011;11481;53.694;9.910;2023-05-27T08:12:38;8.57;;;1.92;;
22628;SDS011;11481;53.694;9.910;2023-05-27T08:15:05;8.57;;;2.60;;
22628;SDS011;11481;53.694;9.910;2023-05-27T08:17:32;9.32;;;2.08;;
22628;SDS011;11481;53.694;9.910;2023-05-27T08:19:59;9.63;;;2.38;;
22628;SDS011;11481;53.694;9.910;2023-05-27T08:22:26;9.52;;;2.40;;
22628;SDS011;11481;53.694;9.910;2023-05-27T08:24:52;9.40;;;2.40;;
22628;SDS011;11481;53.694;9.910;2023-05-27T08:27:41;8.65;;;2.72;;
22628;SDS011;11481;53.694;9.910;2023-05-27T08:30:13;10.38;;;2.53;;
22628;SDS011;11481;53.694;9.910;2023-05-27T08:32:40;9.77;;;2.38;;
22628;SDS011;11481;53.694;9.910;2023-05-27T08:35:08;11.48;;;2.67;;
22628;SDS011;11481;53.694;9.910;2023-05-27T08:37:36;8.77;;;2.70;;
22628;SDS011;11481;53.694;9.910;2023-05-27T08:40:07;10.88;;;2.47;;
22628;SDS011;11481;53.694;9.910;2023-05-27T08:42:36;8.82;;;2.30;;
22628;SDS011;11481;53.694;9.910;2023-05-27T08:45:03;10.73;;;2.13;;
22628;SDS011;11481;53.694;9.910;2023-05-27T08:47:30;10.13;;;2.08;;
22628;SDS011;11481;53.694;9.910;2023-05-27T08:49:57;9.02;;;2.00;;
22628;SDS011;11481;53.694;9.910;2023-05-27T08:52:27;9.65;;;2.33;;
22628;SDS011;11481;53.694;9.910;2023-05-27T08:54:54;8.80;;;2.10;;
22628;SDS011;11481;53.694;9.910;2023-05-27T08:57:28;10.32;;;2.17;;
22628;SDS011;11481;53.694;9.910;2023-05-27T08:59:56;8.13;;;3.10;;
22628;SDS011;11481;53.694;9.910;2023-05-27T09:02:23;11.02;;;2.50;;
22628;SDS011;11481;53.694;9.910;2023-05-27T09:04:50;9.45;;;2.72;;
22628;SDS011;11481;53.694;9.910;2023-05-27T09:07:19;10.55;;;2.90;;
22628;SDS011;11481;53.694;9.910;2023-05-27T09:09:56;9.57;;;2.47;;
22628;SDS011;11481;53.694;9.910;2023-05-27T09:12:24;6.75;;;2.10;;
22628;SDS011;11481;53.694;9.910;2023-05-27T09:14:52;7.00;;;2.30;;
22628;SDS011;11481;53.694;9.910;2023-05-27T09:17:21;12.60;;;2.42;;
22628;SDS011;11481;53.694;9.910;2023-05-27T09:19:52;6.80;;;2.20;;
22628;SDS011;11481;53.694;9.910;2023-05-27T09:22:28;9.48;;;3.00;;
22628;SDS011;11481;53.694;9.910;2023-05-27T09:24:56;12.27;;;2.55;;
22628;SDS011;11481;53.694;9.910;2023-05-27T09:27:26;7.65;;;2.63;;
22628;SDS011;11481;53.694;9.910;2023-05-27T09:29:54;6.60;;;2.10;;
22628;SDS011;11481;53.694;9.910;2023-05-27T09:32:30;7.32;;;2.63;;
22628;SDS011;11481;53.694;9.910;2023-05-27T09:34:57;10.73;;;2.83;;
22628;SDS011;11481;53.694;9.910;2023-05-27T09:37:25;9.93;;;2.55;;
22628;SDS011;11481;53.694;9.910;2023-05-27T09:39:58;11.07;;;2.58;;
22628;SDS011;11481;53.694;9.910;2023-05-27T09:42:25;9.85;;;2.45;;
22628;SDS011;11481;53.694;9.910;2023-05-27T09:44:53;7.15;;;2.70;;
22628;SDS011;11481;53.694;9.910;2023-05-27T09:47:21;7.22;;;2.20;;
22628;SDS011;11481;53.694;9.910;2023-05-27T09:49:49;10.43;;;2.22;;
22628;SDS011;11481;53.694;9.910;2023-05-27T09:52:19;9.48;;;1.95;;
22628;SDS011;11481;53.694;9.910;2023-05-27T09:54:48;6.40;;;2.10;;
22628;SDS011;11481;53.694;9.910;2023-05-27T09:57:15;11.27;;;2.33;;
22628;SDS011;11481;53.694;9.910;2023-05-27T09:59:45;8.85;;;2.22;;
22628;SDS011;11481;53.694;9.910;2023-05-27T10:02:12;6.90;;;2.08;;
22628;SDS011;11481;53.694;9.910;2023-05-27T10:04:45;6.40;;;2.30;;
22628;SDS011;11481;53.694;9.910;2023-05-27T10:07:15;10.38;;;2.70;;
22628;SDS011;11481;53.694;9.910;2023-05-27T10:09:53;10.82;;;3.13;;
22628;SDS011;11481;53.694;9.910;2023-05-27T10:12:20;7.80;;;2.65;;
22628;SDS011;11481;53.694;9.910;2023-05-27T10:14:48;8.50;;;2.28;;
22628;SDS011;11481;53.694;9.910;2023-05-27T10:17:16;10.43;;;3.05;;
22628;SDS011;11481;53.694;9.910;2023-05-27T10:19:56;8.13;;;2.25;;
22628;SDS011;11481;53.694;9.910;2023-05-27T10:22:23;5.85;;;2.30;;
22628;SDS011;11481;53.694;9.910;2023-05-27T10:24:49;9.23;;;2.50;;
22628;SDS011;11481;53.694;9.910;2023-05-27T10:27:19;9.93;;;2.28;;
22628;SDS011;11481;53.694;9.910;2023-05-27T10:29:56;7.85;;;2.28;;
22628;SDS011;11481;53.694;9.910;2023-05-27T10:32:23;7.47;;;2.28;;
22628;SDS011;11481;53.694;9.910;2023-05-27T10:34:50;7.10;;;1.90;;
22628;SDS011;11481;53.694;9.910;2023-05-27T10:37:19;9.55;;;2.50;;
22628;SDS011;11481;53.694;9.910;2023-05-27T10:39:54;5.95;;;2.95;;
22628;SDS011;11481;53.694;9.910;2023-05-27T10:42:22;10.77;;;2.20;;
22628;SDS011;11481;53.694;9.910;2023-05-27T10:44:50;11.15;;;3.40;;
22628;SDS011;11481;53.694;9.910;2023-05-27T10:47:30;12.68;;;2.72;;
22628;SDS011;11481;53.694;9.910;2023-05-27T10:50:09;11.23;;;2.72;;
22628;SDS011;11481;53.694;9.910;2023-05-27T10:52:38;5.53;;;2.15;;
22628;SDS011;11481;53.694;9.910;2023-05-27T10:55:06;10.60;;;2.55;;
22628;SDS011;11481;53.694;9.910;2023-05-27T10:57:33;6.95;;;1.83;;
22628;SDS011;11481;53.694;9.910;2023-05-27T11:00:02;10.27;;;2.20;;
22628;SDS011;11481;53.694;9.910;2023-05-27T11:02:36;8.50;;;2.35;;
22628;SDS011;11481;53.694;9.910;2023-05-27T11:05:13;9.45;;;2.47;;
22628;SDS011;11481;53.694;9.910;2023-05-27T11:07:40;6.05;;;2.08;;
22628;SDS011;11481;53.694;9.910;2023-05-27T11:10:08;7.15;;;2.22;;
22628;SDS011;11481;53.694;9.910;2023-05-27T11:12:35;9.82;;;2.55;;
22628;SDS011;11481;53.694;9.910;2023-05-27T11:15:02;9.55;;;2.63;;
22628;SDS011;11481;53.694;9.910;2023-05-27T11:17:29;9.23;;;3.03;;
22628;SDS011;11481;53.694;9.910;2023-05-27T11:19:56;8.88;;;2.55;;
22628;SDS011;11481;53.694;9.910;2023-05-27T11:22:23;8.55;;;2.47;;
22628;SDS011;11481;53.694;9.910;2023-05-27T11:24:57;5.18;;;2.17;;
22628;SDS011;11481;53.694;9.910;2023-05-27T11:27:25;6.78;;;2.60;;
22628;SDS011;11481;53.694;9.910;2023-05-27T11:29:59;8.50;;;2.25;;
22628;SDS011;11481;53.694;9.910;2023-05-27T11:32:26;7.50;;;2.22;;
22628;SDS011;11481;53.694;9.910;2023-05-27T11:34:53;7.30;;;2.28;;
22628;SDS011;11481;53.694;9.910;2023-05-27T11:37:22;7.35;;;2.47;;
22628;SDS011;11481;53.694;9.910;2023-05-27T11:39:51;9.35;;;3.08;;
22628;SDS011;11481;53.694;9.910;2023-05-27T11:42:22;9.43;;;2.35;;
22628;SDS011;11481;53.694;9.910;2023-05-27T11:44:51;8.27;;;2.25;;
22628;SDS011;11481;53.694;9.910;2023-05-27T11:47:19;6.93;;;2.03;;
22628;SDS011;11481;53.694;9.910;2023-05-27T11:49:47;9.18;;;2.97;;
22628;SDS011;11481;53.694;9.910;2023-05-27T11:52:15;7.50;;;2.33;;
22628;SDS011;11481;53.694;9.910;2023-05-27T11:54:42;5.95;;;2.30;;
22628;SDS011;11481;53.694;9.910;2023-05-27T11:57:19;10.85;;;2.60;;
22628;SDS011;11481;53.694;9.910;2023-05-27T11:59:46;10.88;;;2.65;;
22628;SDS011;11481;53.694;9.910;2023-05-27T12:02:12;8.80;;;2.17;;
22628;SDS011;11481;53.694;9.910;2023-05-27T12:04:39;9.13;;;2.55;;
22628;SDS011;11481;53.694;9.910;2023-05-27T12:07:06;5.53;;;2.20;;
22628;SDS011;11481;53.694;9.910;2023-05-27T12:09:45;8.02;;;2.30;;
22628;SDS011;11481;53.694;9.910;2023-05-27T12:12:14;6.72;;;2.00;;
22628;SDS011;11481;53.694;9.910;2023-05-27T12:14:41;7.78;;;2.33;;
22628;SDS011;11481;53.694;9.910;2023-05-27T12:17:07;8.20;;;2.33;;
22628;SDS011;11481;53.694;9.910;2023-05-27T12:19:34;8.68;;;2.33;;
22628;SDS011;11481;53.694;9.910;2023-05-27T12:22:01;6.95;;;2.40;;
22628;SDS011;11481;53.694;9.910;2023-05-27T12:24:27;5.80;;;2.08;;
22628;SDS011;11481;53.694;9.910;2023-05-27T12:26:54;7.65;;;2.70;;
22628;SDS011;11481;53.694;9.910;2023-05-27T12:29:21;9.15;;;2.85;;
22628;SDS011;11481;53.694;9.910;2023-05-27T12:31:50;11.05;;;2.67;;
22628;SDS011;11481;53.694;9.910;2023-05-27T12:34:18;6.65;;;2.60;;
22628;SDS011;11481;53.694;9.910;2023-05-27T12:36:46;5.40;;;2.30;;
22628;SDS011;11481;53.694;9.910;2023-05-27T12:39:13;7.22;;;2.33;;
22628;SDS011;11481;53.694;9.910;2023-05-27T12:41:40;10.05;;;2.30;;
22628;SDS011;11481;53.694;9.910;2023-05-27T12:44:09;10.38;;;2.17;;
22628;SDS011;11481;53.694;9.910;2023-05-27T12:46:35;6.65;;;2.30;;
22628;SDS011;11481;53.694;9.910;2023-05-27T12:49:04;7.57;;;2.03;;
22628;SDS011;11481;53.694;9.910;2023-05-27T12:51:31;7.55;;;1.98;;
22628;SDS011;11481;53.694;9.910;2023-05-27T12:53:58;10.48;;;2.88;;
22628;SDS011;11481;53.694;9.910;2023-05-27T12:56:26;6.68;;;1.98;;
22628;SDS011;11481;53.694;9.910;2023-05-27T12:58:52;10.77;;;2.63;;
22628;SDS011;11481;53.694;9.910;2023-05-27T13:01:19;7.60;;;2.00;;
22628;SDS011;11481;53.694;9.910;2023-05-27T13:03:46;9.93;;;2.85;;
22628;SDS011;11481;53.694;9.910;2023-05-27T13:06:12;8.07;;;2.63;;
22628;SDS011;11481;53.694;9.910;2023-05-27T13:08:39;5.78;;;2.03;;
22628;SDS011;11481;53.694;9.910;2023-05-27T13:11:06;7.75;;;2.42;;
22628;SDS011;11481;53.694;9.910;2023-05-27T13:13:33;7.68;;;2.42;;
22628;SDS011;11481;53.694;9.910;2023-05-27T13:16:00;8.88;;;2.33;;
22628;SDS011;11481;53.694;9.910;2023-05-27T13:18:27;8.68;;;2.60;;
22628;SDS011;11481;53.694;9.910;2023-05-27T13:20:54;8.32;;;2.80;;
22628;SDS011;11481;53.694;9.910;2023-05-27T13:23:21;6.07;;;2.35;;
22628;SDS011;11481;53.694;9.910;2023-05-27T13:25:48;8.93;;;2.47;;
22628;SDS011;11481;53.694;9.910;2023-05-27T13:28:15;8.20;;;2.70;;
22628;SDS011;11481;53.694;9.910;2023-05-27T13:30:43;11.60;;;2.63;;
22628;SDS011;11481;53.694;9.910;2023-05-27T13:33:10;5.65;;;2.55;;
22628;SDS011;11481;53.694;9.910;2023-05-27T13:35:36;6.57;;;2.13;;
22628;SDS011;11481;53.694;9.910;2023-05-27T13:38:03;7.82;;;2.40;;
22628;SDS011;11481;53.694;9.910;2023-05-27T13:40:32;5.38;;;1.90;;
22628;SDS011;11481;53.694;9.910;2023-05-27T13:42:58;7.32;;;2.67;;
22628;SDS011;11481;53.694;9.910;2023-05-27T13:45:27;8.15;;;2.50;;
22628;SDS011;11481;53.694;9.910;2023-05-27T13:47:53;8.23;;;2.53;;
22628;SDS011;11481;53.694;9.910;2023-05-27T13:50:20;9.40;;;2.40;;
22628;SDS011;11481;53.694;9.910;2023-05-27T13:52:47;5.90;;;2.00;;
22628;SDS011;11481;53.694;9.910;2023-05-27T13:55:14;5.82;;;2.25;;
22628;SDS011;11481;53.694;9.910;2023-05-27T13:57:40;5.72;;;2.30;;
22628;SDS011;11481;53.694;9.910;2023-05-27T14:00:09;6.22;;;2.13;;
22628;SDS011;11481;53.694;9.910;2023-05-27T14:02:36;8.88;;;2.78;;
22628;SDS011;11481;53.694;9.910;2023-05-27T14:05:03;7.15;;;2.17;;
22628;SDS011;11481;53.694;9.910;2023-05-27T14:07:31;9.63;;;2.20;;
22628;SDS011;11481;53.694;9.910;2023-05-27T14:09:58;6.50;;;2.17;;
22628;SDS011;11481;53.694;9.910;2023-05-27T14:12:25;5.78;;;2.00;;
22628;SDS011;11481;53.694;9.910;2023-05-27T14:14:52;6.28;;;2.22;;
22628;SDS011;11481;53.694;9.910;2023-05-27T14:17:18;8.50;;;2.35;;
22628;SDS011;11481;53.694;9.910;2023-05-27T14:19:45;8.18;;;2.40;;
22628;SDS011;11481;53.694;9.910;2023-05-27T14:22:13;6.47;;;2.05;;
22628;SDS011;11481;53.694;9.910;2023-05-27T14:24:39;8.80;;;2.45;;
22628;SDS011;11481;53.694;9.910;2023-05-27T14:27:06;8.85;;;2.83;;
22628;SDS011;11481;53.694;9.910;2023-05-27T14:29:33;8.05;;;2.80;;
22628;SDS011;11481;53.694;9.910;2023-05-27T14:32:00;6.65;;;2.30;;
22628;SDS011;11481;53.694;9.910;2023-05-27T14:34:27;10.43;;;2.08;;
22628;SDS011;11481;53.694;9.910;2023-05-27T14:36:54;6.70;;;2.22;;
22628;SDS011;11481;53.694;9.910;2023-05-27T14:39:20;8.07;;;2.42;;
22628;SDS011;11481;53.694;9.910;2023-05-27T14:41:47;8.45;;;3.00;;
22628;SDS011;11481;53.694;9.910;2023-05-27T14:44:14;7.43;;;2.58;;
22628;SDS011;11481;53.694;9.910;2023-05-27T14:46:41;7.15;;;2.38;;
22628;SDS011;11481;53.694;9.910;2023-05-27T14:49:08;8.00;;;2.22;;
22628;SDS011;11481;53.694;9.910;2023-05-27T14:51:35;7.03;;;2.10;;
22628;SDS011;11481;53.694;9.910;2023-05-27T14:54:02;6.72;;;2.75;;